sensor_id;sensor_type;location;lat;lon;timestamp;pressure;altitude;pressure_sealevel;temperature;humidity
55914;BME280;58179;48.776;9.124;2023-03-07T00:01:22;96184.25;;;1.23;100.00
55914;BME280;58179;48.776;9.124;2023-03-07T00:03:48;96188.66;;;1.23;100.00
55914;BME280;58179;48.776;9.124;2023-03-07T00:06:14;96195.88;;;1.21;100.00
55914;BME280;58179;48.776;9.124;2023-03-07T00:08:40;96189.34;;;1.18;100.00
55914;BME280;58179;48.776;9.124;2023-03-07T00:11:08;96190.13;;;1.19;100.00
55914;BME280;58179;48.776;9.124;2023-03-07T00:13:37;96197.72;;;1.20;100.00
55914;BME280;58179;48.776;9.124;2023-03-07T00:16:04;96189.91;;;1.20;100.00
55914;BME280;58179;48.776;9.124;2023-03-07T00:18:31;96194.09;;;1.21;100.00
55914;BME280;58179;48.776;9.124;2023-03-07T00:20:59;96193.06;;;1.22;100.00
55914;BME280;58179;48.776;9.124;2023-03-07T00:23:25;96187.63;;;1.24;100.00
55914;BME280;58179;48.776;9.124;2023-03-07T00:25:57;96185.84;;;1.24;100.00
55914;BME280;58179;48.776;9.124;2023-03-07T00:28:23;96193.66;;;1.24;100.00
55914;BME280;58179;48.776;9.124;2023-03-07T00:30:51;96185.63;;;1.26;100.00
55914;BME280;58179;48.776;9.124;2023-03-07T00:33:17;96188.81;;;1.28;100.00
55914;BME280;58179;48.776;9.124;2023-03-07T00:35:43;96185.75;;;1.31;100.00
55914;BME280;58179;48.776;9.124;2023-03-07T00:38:08;96179.63;;;1.37;100.00
55914;BME280;58179;48.776;9.124;2023-03-07T00:40:34;96175.44;;;1.36;100.00
55914;BME280;58179;48.776;9.124;2023-03-07T00:43:00;96179.41;;;1.38;100.00
55914;BME280;58179;48.776;9.124;2023-03-07T00:45:26;96172.19;;;1.40;100.00
55914;BME280;58179;48.776;9.124;2023-03-07T00:47:53;96158.25;;;1.46;100.00
55914;BME280;58179;48.776;9.124;2023-03-07T00:50:20;96142.69;;;1.40;100.00
55914;BME280;58179;48.776;9.124;2023-03-07T00:52:46;96149.25;;;1.31;100.00
55914;BME280;58179;48.776;9.124;2023-03-07T00:55:12;96143.44;;;1.29;100.00
55914;BME280;58179;48.776;9.124;2023-03-07T00:57:38;96147.22;;;1.33;100.00
55914;BME280;58179;48.776;9.124;2023-03-07T01:00:05;96147.56;;;1.36;100.00
55914;BME280;58179;48.776;9.124;2023-03-07T01:02:32;96144.94;;;1.36;100.00
55914;BME280;58179;48.776;9.124;2023-03-07T01:04:59;96134.28;;;1.38;100.00
55914;BME280;58179;48.776;9.124;2023-03-07T01:07:25;96140.31;;;1.38;100.00
55914;BME280;58179;48.776;9.124;2023-03-07T01:09:51;96131.81;;;1.43;100.00
55914;BME280;58179;48.776;9.124;2023-03-07T01:12:17;96137.03;;;1.43;100.00
55914;BME280;58179;48.776;9.124;2023-03-07T01:14:43;96131.16;;;1.47;100.00
55914;BME280;58179;48.776;9.124;2023-03-07T01:17:09;96126.50;;;1.49;100.00
55914;BME280;58179;48.776;9.124;2023-03-07T01:19:35;96138.63;;;1.44;100.00
55914;BME280;58179;48.776;9.124;2023-03-07T01:22:03;96133.41;;;1.44;100.00
55914;BME280;58179;48.776;9.124;2023-03-07T01:24:28;96135.56;;;1.47;100.00
55914;BME280;58179;48.776;9.124;2023-03-07T01:26:54;96138.53;;;1.62;100.00
55914;BME280;58179;48.776;9.124;2023-03-07T01:29:20;96132.16;;;1.58;100.00
55914;BME280;58179;48.776;9.124;2023-03-07T01:31:46;96141.56;;;1.47;100.00
55914;BME280;58179;48.776;9.124;2023-03-07T01:34:12;96135.56;;;1.47;100.00
55914;BME280;58179;48.776;9.124;2023-03-07T01:36:38;96126.38;;;1.44;100.00
55914;BME280;58179;48.776;9.124;2023-03-07T01:39:09;96132.59;;;1.43;100.00
55914;BME280;58179;48.776;9.124;2023-03-07T01:41:37;96124.91;;;1.48;100.00
55914;BME280;58179;48.776;9.124;2023-03-07T01:44:11;96114.81;;;1.52;100.00
55914;BME280;58179;48.776;9.124;2023-03-07T01:46:43;96115.03;;;1.50;100.00
55914;BME280;58179;48.776;9.124;2023-03-07T01:49:18;96110.88;;;1.49;100.00
55914;BME280;58179;48.776;9.124;2023-03-07T01:51:49;96118.34;;;1.46;100.00
55914;BME280;58179;48.776;9.124;2023-03-07T01:54:20;96108.38;;;1.54;100.00
55914;BME280;58179;48.776;9.124;2023-03-07T01:56:47;96105.53;;;1.56;100.00
55914;BME280;58179;48.776;9.124;2023-03-07T01:59:18;96109.97;;;1.55;100.00
55914;BME280;58179;48.776;9.124;2023-03-07T02:01:46;96115.75;;;1.58;100.00
55914;BME280;58179;48.776;9.124;2023-03-07T02:04:17;96111.41;;;1.51;100.00
55914;BME280;58179;48.776;9.124;2023-03-07T02:06:45;96104.97;;;1.54;100.00
55914;BME280;58179;48.776;9.124;2023-03-07T02:09:16;96098.38;;;1.51;100.00
55914;BME280;58179;48.776;9.124;2023-03-07T02:11:45;96093.97;;;1.52;100.00
55914;BME280;58179;48.776;9.124;2023-03-07T02:14:12;96094.53;;;1.54;100.00
55914;BME280;58179;48.776;9.124;2023-03-07T02:16:38;96092.63;;;1.49;100.00
55914;BME280;58179;48.776;9.124;2023-03-07T02:19:16;96100.75;;;1.53;100.00
55914;BME280;58179;48.776;9.124;2023-03-07T02:21:54;96098.25;;;1.58;100.00
55914;BME280;58179;48.776;9.124;2023-03-07T02:24:28;96096.94;;;1.55;100.00
55914;BME280;58179;48.776;9.124;2023-03-07T02:26:58;96098.38;;;1.51;100.00
55914;BME280;58179;48.776;9.124;2023-03-07T02:29:24;96102.78;;;1.51;100.00
55914;BME280;58179;48.776;9.124;2023-03-07T02:31:50;96090.13;;;1.54;100.00
55914;BME280;58179;48.776;9.124;2023-03-07T02:34:22;96087.41;;;1.49;100.00
55914;BME280;58179;48.776;9.124;2023-03-07T02:36:52;96083.41;;;1.59;100.00
55914;BME280;58179;48.776;9.124;2023-03-07T02:39:20;96085.13;;;1.53;100.00
55914;BME280;58179;48.776;9.124;2023-03-07T02:41:49;96076.63;;;1.46;100.00
55914;BME280;58179;48.776;9.124;2023-03-07T02:44:19;96070.97;;;1.49;100.00
55914;BME280;58179;48.776;9.124;2023-03-07T02:46:45;96071.97;;;1.48;100.00
55914;BME280;58179;48.776;9.124;2023-03-07T02:49:12;96055.66;;;1.52;100.00
55914;BME280;58179;48.776;9.124;2023-03-07T02:51:38;96055.06;;;1.50;100.00
55914;BME280;58179;48.776;9.124;2023-03-07T02:54:05;96062.22;;;1.55;100.00
55914;BME280;58179;48.776;9.124;2023-03-07T02:56:33;96057.81;;;1.55;100.00
55914;BME280;58179;48.776;9.124;2023-03-07T02:58:59;96062.13;;;1.62;100.00
55914;BME280;58179;48.776;9.124;2023-03-07T03:01:26;96057.34;;;1.59;100.00
55914;BME280;58179;48.776;9.124;2023-03-07T03:03:53;96056.66;;;1.51;100.00
55914;BME280;58179;48.776;9.124;2023-03-07T03:06:18;96053.59;;;1.54;100.00
55914;BME280;58179;48.776;9.124;2023-03-07T03:08:44;96050.97;;;1.43;100.00
55914;BME280;58179;48.776;9.124;2023-03-07T03:11:10;96049.06;;;1.38;100.00
55914;BME280;58179;48.776;9.124;2023-03-07T03:13:37;96051.78;;;1.43;100.00
55914;BME280;58179;48.776;9.124;2023-03-07T03:16:03;96058.59;;;1.33;100.00
55914;BME280;58179;48.776;9.124;2023-03-07T03:18:31;96060.41;;;1.32;100.00
55914;BME280;58179;48.776;9.124;2023-03-07T03:20:57;96058.47;;;1.28;100.00
55914;BME280;58179;48.776;9.124;2023-03-07T03:23:25;96054.72;;;1.24;100.00
55914;BME280;58179;48.776;9.124;2023-03-07T03:25:58;96055.50;;;1.24;100.00
55914;BME280;58179;48.776;9.124;2023-03-07T03:28:24;96052.53;;;1.21;100.00
55914;BME280;58179;48.776;9.124;2023-03-07T03:30:57;96056.63;;;1.28;100.00
55914;BME280;58179;48.776;9.124;2023-03-07T03:33:23;96056.31;;;1.36;100.00
55914;BME280;58179;48.776;9.124;2023-03-07T03:35:50;96053.47;;;1.38;100.00
55914;BME280;58179;48.776;9.124;2023-03-07T03:38:16;96056.78;;;1.33;100.00
55914;BME280;58179;48.776;9.124;2023-03-07T03:40:42;96051.88;;;1.37;100.00
55914;BME280;58179;48.776;9.124;2023-03-07T03:43:08;96047.69;;;1.36;100.00
55914;BME280;58179;48.776;9.124;2023-03-07T03:45:34;96048.84;;;1.40;100.00
55914;BME280;58179;48.776;9.124;2023-03-07T03:48:00;96049.75;;;1.45;100.00
55914;BME280;58179;48.776;9.124;2023-03-07T03:50:26;96043.06;;;1.49;100.00
55914;BME280;58179;48.776;9.124;2023-03-07T03:52:53;96050.44;;;1.52;100.00
55914;BME280;58179;48.776;9.124;2023-03-07T03:55:19;96046.47;;;1.50;100.00
55914;BME280;58179;48.776;9.124;2023-03-07T03:57:44;96045.78;;;1.54;100.00
55914;BME280;58179;48.776;9.124;2023-03-07T04:00:11;96036.38;;;1.53;100.00
55914;BME280;58179;48.776;9.124;2023-03-07T04:02:40;96032.88;;;1.48;100.00
55914;BME280;58179;48.776;9.124;2023-03-07T04:05:07;96038.75;;;1.43;100.00
55914;BME280;58179;48.776;9.124;2023-03-07T04:07:33;96035.34;;;1.43;100.00
55914;BME280;58179;48.776;9.124;2023-03-07T04:10:00;96032.06;;;1.47;100.00
55914;BME280;58179;48.776;9.124;2023-03-07T04:12:26;96035.47;;;1.48;100.00
55914;BME280;58179;48.776;9.124;2023-03-07T04:14:52;96031.50;;;1.45;100.00
55914;BME280;58179;48.776;9.124;2023-03-07T04:17:17;96038.06;;;1.36;100.00
55914;BME280;58179;48.776;9.124;2023-03-07T04:19:43;96027.50;;;1.43;100.00
55914;BME280;58179;48.776;9.124;2023-03-07T04:22:09;96036.72;;;1.45;100.00
55914;BME280;58179;48.776;9.124;2023-03-07T04:24:35;96028.78;;;1.40;100.00
55914;BME280;58179;48.776;9.124;2023-03-07T04:27:02;96030.25;;;1.36;100.00
55914;BME280;58179;48.776;9.124;2023-03-07T04:29:29;96035.13;;;1.33;100.00
55914;BME280;58179;48.776;9.124;2023-03-07T04:31:55;96024.91;;;1.31;100.00
55914;BME280;58179;48.776;9.124;2023-03-07T04:34:21;96020.59;;;1.37;100.00
55914;BME280;58179;48.776;9.124;2023-03-07T04:36:47;96027.09;;;1.34;100.00
55914;BME280;58179;48.776;9.124;2023-03-07T04:39:13;96014.16;;;1.39;100.00
55914;BME280;58179;48.776;9.124;2023-03-07T04:41:39;96019.69;;;1.43;100.00
55914;BME280;58179;48.776;9.124;2023-03-07T04:44:06;96022.31;;;1.43;100.00
55914;BME280;58179;48.776;9.124;2023-03-07T04:46:32;96024.00;;;1.37;100.00
55914;BME280;58179;48.776;9.124;2023-03-07T04:48:58;96015.28;;;1.43;100.00
55914;BME280;58179;48.776;9.124;2023-03-07T04:51:24;96012.91;;;1.42;100.00
55914;BME280;58179;48.776;9.124;2023-03-07T04:53:50;96012.56;;;1.38;100.00
55914;BME280;58179;48.776;9.124;2023-03-07T04:56:16;96011.22;;;1.47;100.00
55914;BME280;58179;48.776;9.124;2023-03-07T04:58:43;96010.84;;;1.44;100.00
55914;BME280;58179;48.776;9.124;2023-03-07T05:01:11;96008.50;;;1.42;100.00
55914;BME280;58179;48.776;9.124;2023-03-07T05:03:36;96009.84;;;1.45;100.00
55914;BME280;58179;48.776;9.124;2023-03-07T05:06:05;96005.31;;;1.40;100.00
55914;BME280;58179;48.776;9.124;2023-03-07T05:08:32;95998.50;;;1.39;100.00
55914;BME280;58179;48.776;9.124;2023-03-07T05:10:58;96003.97;;;1.49;100.00
55914;BME280;58179;48.776;9.124;2023-03-07T05:13:24;95998.97;;;1.48;100.00
55914;BME280;58179;48.776;9.124;2023-03-07T05:15:51;96006.91;;;1.53;100.00
55914;BME280;58179;48.776;9.124;2023-03-07T05:18:19;96000.66;;;1.54;100.00
55914;BME280;58179;48.776;9.124;2023-03-07T05:20:46;95996.25;;;1.54;100.00
55914;BME280;58179;48.776;9.124;2023-03-07T05:23:12;96000.09;;;1.64;100.00
55914;BME280;58179;48.776;9.124;2023-03-07T05:25:38;95991.25;;;1.65;100.00
55914;BME280;58179;48.776;9.124;2023-03-07T05:28:03;95990.00;;;1.55;100.00
55914;BME280;58179;48.776;9.124;2023-03-07T05:30:29;95984.09;;;1.60;100.00
55914;BME280;58179;48.776;9.124;2023-03-07T05:32:55;95990.00;;;1.55;100.00
55914;BME280;58179;48.776;9.124;2023-03-07T05:35:22;95988.88;;;1.63;100.00
55914;BME280;58179;48.776;9.124;2023-03-07T05:37:50;96000.06;;;1.75;100.00
55914;BME280;58179;48.776;9.124;2023-03-07T05:40:16;95994.72;;;1.93;100.00
55914;BME280;58179;48.776;9.124;2023-03-07T05:42:42;95993.13;;;1.81;100.00
55914;BME280;58179;48.776;9.124;2023-03-07T05:45:10;95991.00;;;1.66;100.00
55914;BME280;58179;48.776;9.124;2023-03-07T05:47:36;95996.56;;;1.70;100.00
55914;BME280;58179;48.776;9.124;2023-03-07T05:50:04;95989.53;;;1.70;100.00
55914;BME280;58179;48.776;9.124;2023-03-07T05:52:32;95981.72;;;1.70;100.00
55914;BME280;58179;48.776;9.124;2023-03-07T05:54:58;95988.28;;;1.61;100.00
55914;BME280;58179;48.776;9.124;2023-03-07T05:57:23;95984.75;;;1.67;100.00
55914;BME280;58179;48.776;9.124;2023-03-07T05:59:49;95997.00;;;1.67;100.00
55914;BME280;58179;48.776;9.124;2023-03-07T06:02:15;95988.66;;;1.65;100.00
55914;BME280;58179;48.776;9.124;2023-03-07T06:04:41;95981.72;;;1.59;100.00
55914;BME280;58179;48.776;9.124;2023-03-07T06:07:07;95978.22;;;1.53;100.00
55914;BME280;58179;48.776;9.124;2023-03-07T06:09:34;95979.56;;;1.55;100.00
55914;BME280;58179;48.776;9.124;2023-03-07T06:12:00;95969.59;;;1.64;100.00
55914;BME280;58179;48.776;9.124;2023-03-07T06:14:26;95963.59;;;1.64;100.00
55914;BME280;58179;48.776;9.124;2023-03-07T06:16:52;95965.63;;;1.62;100.00
55914;BME280;58179;48.776;9.124;2023-03-07T06:19:18;95965.16;;;1.65;100.00
55914;BME280;58179;48.776;9.124;2023-03-07T06:21:44;95959.03;;;1.59;100.00
55914;BME280;58179;48.776;9.124;2023-03-07T06:24:10;95966.75;;;1.54;100.00
55914;BME280;58179;48.776;9.124;2023-03-07T06:26:37;95968.44;;;1.60;100.00
55914;BME280;58179;48.776;9.124;2023-03-07T06:29:03;95962.91;;;1.57;100.00
55914;BME280;58179;48.776;9.124;2023-03-07T06:31:29;95965.84;;;1.60;100.00
55914;BME280;58179;48.776;9.124;2023-03-07T06:33:54;95970.94;;;1.67;100.00
55914;BME280;58179;48.776;9.124;2023-03-07T06:36:21;95980.34;;;1.79;100.00
55914;BME280;58179;48.776;9.124;2023-03-07T06:38:47;95976.03;;;1.73;100.00
55914;BME280;58179;48.776;9.124;2023-03-07T06:41:13;95981.13;;;1.80;100.00
55914;BME280;58179;48.776;9.124;2023-03-07T06:43:40;95971.72;;;1.79;100.00
55914;BME280;58179;48.776;9.124;2023-03-07T06:46:06;95971.25;;;1.82;100.00
55914;BME280;58179;48.776;9.124;2023-03-07T06:48:32;95976.47;;;1.82;100.00
55914;BME280;58179;48.776;9.124;2023-03-07T06:50:59;95978.13;;;2.00;100.00
55914;BME280;58179;48.776;9.124;2023-03-07T06:53:30;95973.34;;;1.97;100.00
55914;BME280;58179;48.776;9.124;2023-03-07T06:55:56;95978.13;;;2.00;100.00
55914;BME280;58179;48.776;9.124;2023-03-07T06:58:22;95981.66;;;1.93;100.00
55914;BME280;58179;48.776;9.124;2023-03-07T07:00:49;95974.63;;;1.94;100.00
55914;BME280;58179;48.776;9.124;2023-03-07T07:03:15;95969.06;;;2.02;100.00
55914;BME280;58179;48.776;9.124;2023-03-07T07:05:42;95967.00;;;2.04;100.00
55914;BME280;58179;48.776;9.124;2023-03-07T07:08:08;95973.00;;;2.05;100.00
55914;BME280;58179;48.776;9.124;2023-03-07T07:10:34;95972.19;;;2.16;100.00
55914;BME280;58179;48.776;9.124;2023-03-07T07:13:01;95982.03;;;2.25;100.00
55914;BME280;58179;48.776;9.124;2023-03-07T07:15:27;95977.34;;;2.27;100.00
55914;BME280;58179;48.776;9.124;2023-03-07T07:17:54;95976.41;;;2.33;100.00
55914;BME280;58179;48.776;9.124;2023-03-07T07:20:20;95975.44;;;2.51;100.00
55914;BME280;58179;48.776;9.124;2023-03-07T07:22:46;95972.50;;;2.48;100.00
55914;BME280;58179;48.776;9.124;2023-03-07T07:25:12;95969.34;;;2.46;100.00
55914;BME280;58179;48.776;9.124;2023-03-07T07:27:38;95972.75;;;2.46;100.00
55914;BME280;58179;48.776;9.124;2023-03-07T07:30:06;95957.94;;;2.52;100.00
55914;BME280;58179;48.776;9.124;2023-03-07T07:32:33;95974.06;;;2.49;100.00
55914;BME280;58179;48.776;9.124;2023-03-07T07:35:00;95976.56;;;2.55;100.00
55914;BME280;58179;48.776;9.124;2023-03-07T07:37:26;95967.81;;;2.78;100.00
55914;BME280;58179;48.776;9.124;2023-03-07T07:39:52;95973.28;;;2.77;100.00
55914;BME280;58179;48.776;9.124;2023-03-07T07:42:18;95972.69;;;2.75;100.00
55914;BME280;58179;48.776;9.124;2023-03-07T07:44:44;95973.13;;;2.83;100.00
55914;BME280;58179;48.776;9.124;2023-03-07T07:47:11;95981.03;;;3.05;100.00
55914;BME280;58179;48.776;9.124;2023-03-07T07:49:37;95974.53;;;3.24;100.00
55914;BME280;58179;48.776;9.124;2023-03-07T07:52:04;95977.41;;;3.06;100.00
55914;BME280;58179;48.776;9.124;2023-03-07T07:54:31;95969.31;;;2.91;100.00
55914;BME280;58179;48.776;9.124;2023-03-07T07:56:56;95971.44;;;2.94;100.00
55914;BME280;58179;48.776;9.124;2023-03-07T07:59:23;95967.56;;;2.96;100.00
55914;BME280;58179;48.776;9.124;2023-03-07T08:01:49;95973.75;;;3.07;100.00
55914;BME280;58179;48.776;9.124;2023-03-07T08:04:15;95968.44;;;3.02;100.00
55914;BME280;58179;48.776;9.124;2023-03-07T08:06:41;95962.63;;;3.17;100.00
55914;BME280;58179;48.776;9.124;2023-03-07T08:09:10;95962.13;;;3.15;100.00
55914;BME280;58179;48.776;9.124;2023-03-07T08:11:36;95967.19;;;3.04;100.00
55914;BME280;58179;48.776;9.124;2023-03-07T08:14:02;95961.84;;;3.16;100.00
55914;BME280;58179;48.776;9.124;2023-03-07T08:16:28;95971.44;;;3.10;100.00
55914;BME280;58179;48.776;9.124;2023-03-07T08:18:55;95965.66;;;3.08;100.00
55914;BME280;58179;48.776;9.124;2023-03-07T08:21:23;95964.38;;;3.28;100.00
55914;BME280;58179;48.776;9.124;2023-03-07T08:23:49;95968.69;;;3.56;100.00
55914;BME280;58179;48.776;9.124;2023-03-07T08:26:16;95953.66;;;3.46;100.00
55914;BME280;58179;48.776;9.124;2023-03-07T08:28:42;95955.72;;;3.44;100.00
55914;BME280;58179;48.776;9.124;2023-03-07T08:31:10;95959.25;;;3.55;100.00
55914;BME280;58179;48.776;9.124;2023-03-07T08:33:37;95956.19;;;3.79;100.00
55914;BME280;58179;48.776;9.124;2023-03-07T08:36:03;95961.84;;;3.93;100.00
55914;BME280;58179;48.776;9.124;2023-03-07T08:38:30;95951.94;;;3.95;100.00
55914;BME280;58179;48.776;9.124;2023-03-07T08:40:59;95950.06;;;3.91;100.00
55914;BME280;58179;48.776;9.124;2023-03-07T08:43:27;95936.34;;;4.05;100.00
55914;BME280;58179;48.776;9.124;2023-03-07T08:45:54;95942.44;;;4.11;100.00
55914;BME280;58179;48.776;9.124;2023-03-07T08:48:19;95943.94;;;4.07;100.00
55914;BME280;58179;48.776;9.124;2023-03-07T08:50:46;95945.59;;;4.13;100.00
55914;BME280;58179;48.776;9.124;2023-03-07T08:53:12;95933.94;;;4.25;100.00
55914;BME280;58179;48.776;9.124;2023-03-07T08:55:38;95937.31;;;4.48;100.00
55914;BME280;58179;48.776;9.124;2023-03-07T08:58:04;95940.41;;;4.45;100.00
55914;BME280;58179;48.776;9.124;2023-03-07T09:00:31;95932.56;;;4.45;100.00
55914;BME280;58179;48.776;9.124;2023-03-07T09:02:57;95926.63;;;4.54;100.00
55914;BME280;58179;48.776;9.124;2023-03-07T09:05:23;95939.38;;;4.73;100.00
55914;BME280;58179;48.776;9.124;2023-03-07T09:07:49;95941.00;;;4.79;100.00
55914;BME280;58179;48.776;9.124;2023-03-07T09:10:16;95942.59;;;4.80;100.00
55914;BME280;58179;48.776;9.124;2023-03-07T09:12:43;95933.94;;;4.79;100.00
55914;BME280;58179;48.776;9.124;2023-03-07T09:15:10;95928.09;;;4.72;100.00
55914;BME280;58179;48.776;9.124;2023-03-07T09:17:37;95929.03;;;4.61;100.00
55914;BME280;58179;48.776;9.124;2023-03-07T09:20:04;95917.53;;;4.62;100.00
55914;BME280;58179;48.776;9.124;2023-03-07T09:22:31;95921.72;;;4.63;100.00
55914;BME280;58179;48.776;9.124;2023-03-07T09:24:57;95909.25;;;4.75;100.00
55914;BME280;58179;48.776;9.124;2023-03-07T09:27:23;95913.66;;;4.70;100.00
55914;BME280;58179;48.776;9.124;2023-03-07T09:29:49;95920.56;;;4.81;100.00
55914;BME280;58179;48.776;9.124;2023-03-07T09:32:15;95921.19;;;4.93;100.00
55914;BME280;58179;48.776;9.124;2023-03-07T09:34:42;95915.72;;;4.67;100.00
55914;BME280;58179;48.776;9.124;2023-03-07T09:37:09;95920.34;;;4.55;100.00
55914;BME280;58179;48.776;9.124;2023-03-07T09:39:35;95936.47;;;4.42;100.00
55914;BME280;58179;48.776;9.124;2023-03-07T09:42:10;95921.03;;;4.46;100.00
55914;BME280;58179;48.776;9.124;2023-03-07T09:45:13;95924.44;;;4.46;100.00
55914;BME280;58179;48.776;9.124;2023-03-07T09:48:03;95924.09;;;4.38;100.00
55914;BME280;58179;48.776;9.124;2023-03-07T09:50:39;95923.91;;;4.44;100.00
55914;BME280;58179;48.776;9.124;2023-03-07T09:53:16;95934.94;;;4.19;100.00
55914;BME280;58179;48.776;9.124;2023-03-07T09:55:43;95913.75;;;3.99;98.33
55914;BME280;58179;48.776;9.124;2023-03-07T09:58:15;95929.63;;;4.14;100.00
55914;BME280;58179;48.776;9.124;2023-03-07T10:00:43;95922.03;;;4.13;100.00
55914;BME280;58179;48.776;9.124;2023-03-07T10:03:20;95917.66;;;3.97;100.00
55914;BME280;58179;48.776;9.124;2023-03-07T10:05:54;95907.03;;;4.08;100.00
55914;BME280;58179;48.776;9.124;2023-03-07T10:08:25;95905.81;;;4.16;100.00
55914;BME280;58179;48.776;9.124;2023-03-07T10:10:58;95915.28;;;3.95;100.00
55914;BME280;58179;48.776;9.124;2023-03-07T10:13:43;95904.16;;;4.05;100.00
55914;BME280;58179;48.776;9.124;2023-03-07T10:16:19;95907.94;;;4.19;100.00
55914;BME280;58179;48.776;9.124;2023-03-07T10:18:56;95908.59;;;3.82;100.00
55914;BME280;58179;48.776;9.124;2023-03-07T10:21:35;95902.38;;;3.88;100.00
55914;BME280;58179;48.776;9.124;2023-03-07T10:24:41;95903.78;;;3.96;100.00
55914;BME280;58179;48.776;9.124;2023-03-07T10:27:11;95900.06;;;3.92;100.00
55914;BME280;58179;48.776;9.124;2023-03-07T10:29:44;95898.03;;;3.99;100.00
55914;BME280;58179;48.776;9.124;2023-03-07T10:32:19;95893.66;;;4.05;100.00
55914;BME280;58179;48.776;9.124;2023-03-07T10:34:47;95895.19;;;4.01;100.00
55914;BME280;58179;48.776;9.124;2023-03-07T10:37:20;95895.72;;;4.29;100.00
55914;BME280;58179;48.776;9.124;2023-03-07T10:39:50;95892.72;;;4.43;100.00
55914;BME280;58179;48.776;9.124;2023-03-07T10:42:21;95879.78;;;4.31;100.00
55914;BME280;58179;48.776;9.124;2023-03-07T10:44:48;95885.59;;;4.38;100.00
55914;BME280;58179;48.776;9.124;2023-03-07T10:47:20;95887.28;;;4.22;100.00
55914;BME280;58179;48.776;9.124;2023-03-07T10:49:48;95876.22;;;4.15;100.00
55914;BME280;58179;48.776;9.124;2023-03-07T10:52:29;95884.16;;;3.99;100.00
55914;BME280;58179;48.776;9.124;2023-03-07T10:55:30;95885.47;;;3.96;100.00
55914;BME280;58179;48.776;9.124;2023-03-07T10:58:13;95884.69;;;3.74;100.00
55914;BME280;58179;48.776;9.124;2023-03-07T11:00:40;95876.34;;;3.77;100.00
55914;BME280;58179;48.776;9.124;2023-03-07T11:03:21;95882.72;;;3.86;100.00
55914;BME280;58179;48.776;9.124;2023-03-07T11:05:48;95873.72;;;3.77;100.00
55914;BME280;58179;48.776;9.124;2023-03-07T11:08:28;95893.94;;;3.81;100.00
55914;BME280;58179;48.776;9.124;2023-03-07T11:10:54;95881.38;;;3.83;100.00
55914;BME280;58179;48.776;9.124;2023-03-07T11:13:21;95875.19;;;3.89;100.00
55914;BME280;58179;48.776;9.124;2023-03-07T11:15:48;95873.53;;;3.62;97.83
55914;BME280;58179;48.776;9.124;2023-03-07T11:18:29;95860.28;;;3.68;100.00
55914;BME280;58179;48.776;9.124;2023-03-07T11:20:56;95869.00;;;4.01;100.00
55914;BME280;58179;48.776;9.124;2023-03-07T11:23:28;95864.75;;;3.95;100.00
55914;BME280;58179;48.776;9.124;2023-03-07T11:25:57;95869.88;;;3.84;100.00
55914;BME280;58179;48.776;9.124;2023-03-07T11:28:38;95857.66;;;3.90;100.00
55914;BME280;58179;48.776;9.124;2023-03-07T11:31:14;95857.56;;;3.85;100.00
55914;BME280;58179;48.776;9.124;2023-03-07T11:33:50;95841.59;;;4.08;100.00
55914;BME280;58179;48.776;9.124;2023-03-07T11:36:23;95859.22;;;3.91;100.00
55914;BME280;58179;48.776;9.124;2023-03-07T11:39:00;95847.53;;;3.77;100.00
55914;BME280;58179;48.776;9.124;2023-03-07T11:41:34;95862.34;;;3.88;100.00
55914;BME280;58179;48.776;9.124;2023-03-07T11:44:18;95859.06;;;3.76;100.00
55914;BME280;58179;48.776;9.124;2023-03-07T11:47:16;95854.00;;;3.69;100.00
55914;BME280;58179;48.776;9.124;2023-03-07T11:50:04;95860.13;;;4.02;100.00
55914;BME280;58179;48.776;9.124;2023-03-07T11:53:06;95859.09;;;4.03;100.00
55914;BME280;58179;48.776;9.124;2023-03-07T11:55:39;95855.66;;;4.02;100.00
55914;BME280;58179;48.776;9.124;2023-03-07T11:58:49;95864.75;;;3.95;100.00
55914;BME280;58179;48.776;9.124;2023-03-07T12:01:25;95856.19;;;3.77;96.57
55914;BME280;58179;48.776;9.124;2023-03-07T12:04:36;95847.03;;;3.75;100.00
55914;BME280;58179;48.776;9.124;2023-03-07T12:07:21;95846.91;;;3.65;100.00
55914;BME280;58179;48.776;9.124;2023-03-07T12:09:56;95842.50;;;3.70;100.00
55914;BME280;58179;48.776;9.124;2023-03-07T12:12:42;95847.81;;;3.75;100.00
55914;BME280;58179;48.776;9.124;2023-03-07T12:15:30;95844.31;;;3.70;100.00
55914;BME280;58179;48.776;9.124;2023-03-07T12:18:25;95848.53;;;3.71;100.00
55914;BME280;58179;48.776;9.124;2023-03-07T12:21:02;95846.63;;;3.88;100.00
55914;BME280;58179;48.776;9.124;2023-03-07T12:23:38;95833.97;;;3.80;96.27
55914;BME280;58179;48.776;9.124;2023-03-07T12:26:14;95830.94;;;3.88;100.00
55914;BME280;58179;48.776;9.124;2023-03-07T12:28:46;95802.81;;;4.05;100.00
55914;BME280;58179;48.776;9.124;2023-03-07T12:31:17;95813.81;;;4.07;90.24
55914;BME280;58179;48.776;9.124;2023-03-07T12:33:52;95801.72;;;4.28;100.00
55914;BME280;58179;48.776;9.124;2023-03-07T12:36:28;95793.31;;;4.63;100.00
55914;BME280;58179;48.776;9.124;2023-03-07T12:39:02;95785.38;;;4.53;97.55
55914;BME280;58179;48.776;9.124;2023-03-07T12:41:56;95794.09;;;4.63;93.15
55914;BME280;58179;48.776;9.124;2023-03-07T12:44:33;95777.75;;;4.88;100.00
55914;BME280;58179;48.776;9.124;2023-03-07T12:47:12;95770.56;;;4.74;91.64
55914;BME280;58179;48.776;9.124;2023-03-07T12:49:47;95764.97;;;5.07;100.00
55914;BME280;58179;48.776;9.124;2023-03-07T12:52:28;95752.31;;;4.89;93.23
55914;BME280;58179;48.776;9.124;2023-03-07T12:55:01;95748.94;;;4.98;100.00
55914;BME280;58179;48.776;9.124;2023-03-07T12:57:33;95747.34;;;4.87;94.27
55914;BME280;58179;48.776;9.124;2023-03-07T13:00:04;95740.03;;;4.99;100.00
55914;BME280;58179;48.776;9.124;2023-03-07T13:02:39;95746.88;;;5.00;100.00
55914;BME280;58179;48.776;9.124;2023-03-07T13:05:17;95741.59;;;4.95;100.00
55914;BME280;58179;48.776;9.124;2023-03-07T13:07:44;95737.91;;;4.96;100.00
55914;BME280;58179;48.776;9.124;2023-03-07T13:10:16;95729.84;;;5.03;100.00
55914;BME280;58179;48.776;9.124;2023-03-07T13:12:43;95736.91;;;5.02;100.00